createdAt,value
2023-02-23T00:12:45.584Z,6.63
2023-02-23T00:32:45.586Z,6.41
2023-02-23T00:52:45.593Z,6.36
2023-02-23T01:12:45.622Z,6.40
2023-02-23T01:32:45.586Z,6.41
2023-02-23T01:52:45.590Z,6.33
2023-02-23T02:12:45.613Z,6.42
2023-02-23T02:32:45.672Z,6.33
2023-02-23T02:52:45.523Z,6.27
2023-02-23T03:12:45.503Z,6.14
2023-02-23T03:32:45.542Z,6.06
2023-02-23T03:52:45.514Z,6.02
2023-02-23T04:12:45.510Z,5.71
2023-02-23T04:32:45.524Z,5.23
2023-02-23T04:52:45.531Z,4.68
2023-02-23T05:12:45.571Z,4.65
2023-02-23T05:32:45.535Z,4.40
2023-02-23T05:52:45.566Z,4.57
2023-02-23T06:12:45.641Z,4.79
2023-02-23T06:32:45.489Z,4.93
2023-02-23T06:52:45.463Z,5.30
2023-02-23T07:12:45.471Z,5.66
2023-02-23T07:32:45.451Z,6.24
2023-02-23T07:52:45.532Z,6.80
2023-02-23T08:12:45.484Z,7.09
2023-02-23T08:32:45.541Z,7.34
2023-02-23T08:52:45.416Z,7.45
2023-02-23T09:12:45.480Z,7.76
2023-02-23T09:32:45.451Z,8.23
2023-02-23T09:52:45.443Z,8.43
2023-02-23T10:12:45.447Z,8.59
2023-02-23T10:32:45.454Z,9.07
2023-02-23T10:52:45.445Z,9.63
2023-02-23T11:12:45.485Z,9.36
2023-02-23T11:32:45.344Z,9.53
2023-02-23T11:52:45.390Z,10.04
2023-02-23T12:12:45.428Z,10.04
2023-02-23T12:32:45.274Z,10.23
2023-02-23T12:52:45.266Z,11.02
2023-02-23T13:12:45.296Z,10.11
2023-02-23T13:32:45.279Z,9.90
2023-02-23T13:52:45.335Z,10.07
2023-02-23T14:12:45.202Z,10.94
2023-02-23T14:32:45.277Z,11.28
2023-02-23T14:52:45.234Z,10.49
2023-02-23T15:12:45.230Z,10.31
2023-02-23T15:32:45.258Z,10.02
2023-02-23T15:52:45.356Z,9.82
2023-02-23T16:12:45.315Z,9.46
2023-02-23T16:32:45.276Z,8.65
2023-02-23T16:52:45.294Z,7.79
2023-02-23T17:12:45.342Z,7.03
2023-02-23T17:32:45.273Z,6.45
2023-02-23T17:52:45.249Z,5.87
2023-02-23T18:12:45.280Z,5.50
2023-02-23T18:32:45.165Z,5.17
2023-02-23T18:52:45.303Z,4.79
2023-02-23T19:12:45.277Z,4.41
2023-02-23T19:32:45.248Z,4.35
2023-02-23T19:52:45.371Z,4.50
2023-02-23T20:12:45.224Z,4.49
2023-02-23T20:32:45.221Z,4.18
2023-02-23T20:52:45.232Z,4.65
2023-02-23T21:12:45.251Z,4.78
2023-02-23T21:32:45.217Z,4.97
2023-02-23T21:52:45.219Z,4.96
2023-02-23T22:12:45.251Z,5.10
2023-02-23T22:32:45.266Z,5.15
2023-02-23T22:52:45.268Z,5.42
2023-02-23T23:12:45.241Z,5.44
2023-02-23T23:32:45.082Z,5.34
2023-02-23T23:52:45.230Z,5.34
